Time;durP1;ratioP1;P1;durP2;ratioP2;P2;SDS_P1;SDS_P2;PMS_P1;PMS_P2;Temp;Humidity;BMP_temperature;BMP_pressure;BME280_temperature;BME280_humidity;BME280_pressure;Samples;Min_cycle;Max_cycle;Signal;HPM_P1;HPM_P2
2022/03/04 00:01:02;;;;;;;54.33;30.73;;;;;;;;;;4939467;28;21051;-44
2022/03/04 00:03:29;;;;;;;51.77;30.97;;;;;;;;;;4945311;28;20544;-44
2022/03/04 00:05:55;;;;;;;54.83;30.83;;;;;;;;;;4938678;28;20472;-44
2022/03/04 00:08:21;;;;;;;52.53;30.03;;;;;;;;;;4939327;28;20429;-44
2022/03/04 00:10:47;;;;;;;60.13;31.63;;;;;;;;;;4937715;28;20541;-45
2022/03/04 00:13:13;;;;;;;54.87;30.43;;;;;;;;;;4942499;28;20752;-45
2022/03/04 00:15:40;;;;;;;56.07;32.33;;;;;;;;;;4944509;28;20429;-45
2022/03/04 00:18:06;;;;;;;51.37;31.23;;;;;;;;;;4938489;28;20865;-44
2022/03/04 00:20:32;;;;;;;52.87;31.33;;;;;;;;;;4938470;28;20488;-44
2022/03/04 00:22:58;;;;;;;55.77;31.07;;;;;;;;;;4941818;28;20456;-45
2022/03/04 00:25:24;;;;;;;50.23;30.30;;;;;;;;;;4943603;28;21430;-45
2022/03/04 00:27:50;;;;;;;58.77;31.20;;;;;;;;;;4943802;28;20436;-45
2022/03/04 00:30:17;;;;;;;54.83;30.90;;;;;;;;;;4943548;28;20520;-45
2022/03/04 00:32:43;;;;;;;56.23;31.67;;;;;;;;;;4942862;28;20429;-45
2022/03/04 00:35:09;;;;;;;56.30;30.87;;;;;;;;;;4940693;28;20787;-45
2022/03/04 00:37:35;;;;;;;61.87;33.87;;;;;;;;;;4946402;28;21330;-44
2022/03/04 00:40:02;;;;;;;60.13;32.23;;;;;;;;;;4942760;28;20422;-44
2022/03/04 00:42:28;;;;;;;57.60;32.60;;;;;;;;;;4946680;28;20492;-43
2022/03/04 00:44:54;;;;;;;62.67;34.00;;;;;;;;;;4945149;28;20539;-45
2022/03/04 00:47:20;;;;;;;61.37;33.83;;;;;;;;;;4944810;28;20520;-45
2022/03/04 00:49:46;;;;;;;62.77;34.30;;;;;;;;;;4944526;28;21012;-44
2022/03/04 00:52:13;;;;;;;63.90;34.37;;;;;;;;;;4942005;28;20440;-45
2022/03/04 00:54:39;;;;;;;65.47;34.07;;;;;;;;;;4942036;28;21092;-45
2022/03/04 00:57:05;;;;;;;67.37;34.53;;;;;;;;;;4947783;28;21344;-45
2022/03/04 00:59:31;;;;;;;65.20;34.23;;;;;;;;;;4949485;28;20527;-45
2022/03/04 01:01:57;;;;;;;62.37;34.73;;;;;;;;;;4943410;28;20457;-45
2022/03/04 01:04:23;;;;;;;63.50;35.03;;;;;;;;;;4945224;28;20978;-45
2022/03/04 01:06:50;;;;;;;64.20;34.93;;;;;;;;;;4940360;28;20533;-45
2022/03/04 01:09:16;;;;;;;62.63;35.33;;;;;;;;;;4946312;28;20905;-45
2022/03/04 01:11:42;;;;;;;72.77;38.63;;;;;;;;;;4948878;28;20751;-45
2022/03/04 01:14:08;;;;;;;69.37;36.40;;;;;;;;;;4944662;28;20969;-44
2022/03/04 01:16:34;;;;;;;72.87;39.40;;;;;;;;;;4941863;28;21318;-45
2022/03/04 01:19:01;;;;;;;75.77;37.57;;;;;;;;;;4943884;28;20819;-45
2022/03/04 01:21:27;;;;;;;72.73;38.67;;;;;;;;;;4947454;28;20432;-45
2022/03/04 01:23:53;;;;;;;65.83;38.17;;;;;;;;;;4942653;28;20531;-44
2022/03/04 01:26:19;;;;;;;74.93;39.23;;;;;;;;;;4940754;28;23089;-45
2022/03/04 01:28:45;;;;;;;67.70;37.70;;;;;;;;;;4942797;28;20958;-45
2022/03/04 01:31:12;;;;;;;73.00;38.87;;;;;;;;;;4945943;28;20440;-45
2022/03/04 01:33:39;;;;;;;72.90;40.27;;;;;;;;;;4945597;28;20470;-45
2022/03/04 01:36:06;;;;;;;79.43;42.47;;;;;;;;;;4942866;28;20444;-45
2022/03/04 01:38:32;;;;;;;69.57;39.63;;;;;;;;;;4942526;28;20510;-45
2022/03/04 01:40:58;;;;;;;70.13;39.77;;;;;;;;;;4941575;28;20818;-44
2022/03/04 01:43:24;;;;;;;77.00;42.83;;;;;;;;;;4943421;28;21076;-45
2022/03/04 01:45:50;;;;;;;71.03;41.30;;;;;;;;;;4944873;28;20457;-45
2022/03/04 01:48:17;;;;;;;72.50;40.87;;;;;;;;;;4943383;28;21319;-45
2022/03/04 01:50:43;;;;;;;76.77;44.37;;;;;;;;;;4946650;28;20827;-45
2022/03/04 01:53:09;;;;;;;74.00;41.97;;;;;;;;;;4947338;28;20448;-45
2022/03/04 01:55:36;;;;;;;76.70;43.57;;;;;;;;;;4950959;28;20555;-45
2022/03/04 01:58:02;;;;;;;75.57;44.40;;;;;;;;;;4948604;28;20469;-45
2022/03/04 02:00:28;;;;;;;75.43;42.83;;;;;;;;;;4947486;28;20501;-45
2022/03/04 02:02:57;;;;;;;71.00;41.87;;;;;;;;;;4945764;28;20433;-45
2022/03/04 02:05:23;;;;;;;76.67;43.77;;;;;;;;;;4946943;28;20472;-45
2022/03/04 02:07:49;;;;;;;78.53;44.33;;;;;;;;;;4947845;28;20456;-45
2022/03/04 02:10:15;;;;;;;77.63;45.27;;;;;;;;;;4937579;28;20449;-44
2022/03/04 02:12:41;;;;;;;83.83;46.97;;;;;;;;;;4945182;28;20420;-45
2022/03/04 02:15:08;;;;;;;79.23;44.90;;;;;;;;;;4947285;28;20456;-45
2022/03/04 02:17:34;;;;;;;76.30;45.77;;;;;;;;;;4948245;28;20472;-45
2022/03/04 02:20:01;;;;;;;76.93;46.33;;;;;;;;;;4945682;28;21132;-45
2022/03/04 02:22:27;;;;;;;72.33;43.60;;;;;;;;;;4946022;28;20440;-45
2022/03/04 02:24:53;;;;;;;79.73;45.57;;;;;;;;;;4941202;28;20457;-45
2022/03/04 02:27:19;;;;;;;77.93;45.13;;;;;;;;;;4943956;28;21621;-45
2022/03/04 02:29:45;;;;;;;76.80;46.13;;;;;;;;;;4945714;28;20727;-45
2022/03/04 02:32:11;;;;;;;83.00;47.20;;;;;;;;;;4944111;28;20424;-45
2022/03/04 02:34:38;;;;;;;78.57;46.43;;;;;;;;;;4943984;28;20441;-45
2022/03/04 02:37:04;;;;;;;78.53;47.70;;;;;;;;;;4945138;28;20860;-45
2022/03/04 02:39:31;;;;;;;80.03;47.27;;;;;;;;;;4947937;28;20920;-45
2022/03/04 02:41:57;;;;;;;83.93;47.30;;;;;;;;;;4944479;28;20429;-45
2022/03/04 02:44:23;;;;;;;77.47;46.53;;;;;;;;;;4944916;28;20444;-45
2022/03/04 02:46:49;;;;;;;79.37;45.70;;;;;;;;;;4944054;28;20443;-45
2022/03/04 02:49:15;;;;;;;81.43;46.77;;;;;;;;;;4944245;28;21048;-45
2022/03/04 02:51:41;;;;;;;81.43;47.70;;;;;;;;;;4946726;28;21118;-45
2022/03/04 02:54:07;;;;;;;81.63;45.87;;;;;;;;;;4944083;28;21326;-45
2022/03/04 02:56:34;;;;;;;80.80;47.13;;;;;;;;;;4948547;28;20507;-45
2022/03/04 02:59:00;;;;;;;80.40;45.77;;;;;;;;;;4944139;28;20908;-46
2022/03/04 03:01:26;;;;;;;71.77;44.00;;;;;;;;;;4942882;28;20958;-45
2022/03/04 03:03:52;;;;;;;76.27;45.33;;;;;;;;;;4941714;28;20921;-45
2022/03/04 03:06:18;;;;;;;82.30;48.13;;;;;;;;;;4940143;28;20468;-45
2022/03/04 03:08:44;;;;;;;78.20;47.23;;;;;;;;;;4942690;28;20956;-45
2022/03/04 03:11:10;;;;;;;81.93;47.73;;;;;;;;;;4946038;28;20760;-45
2022/03/04 03:13:36;;;;;;;83.23;48.07;;;;;;;;;;4947610;28;20424;-46
2022/03/04 03:16:03;;;;;;;81.47;45.83;;;;;;;;;;4941603;28;20472;-45
2022/03/04 03:18:29;;;;;;;87.20;49.17;;;;;;;;;;4940576;28;20843;-45
2022/03/04 03:20:55;;;;;;;83.80;47.13;;;;;;;;;;4943262;28;20952;-45
2022/03/04 03:23:21;;;;;;;78.30;45.83;;;;;;;;;;4945891;28;20521;-45
2022/03/04 03:25:47;;;;;;;87.73;47.83;;;;;;;;;;4945322;28;20464;-45
2022/03/04 03:28:14;;;;;;;82.40;48.07;;;;;;;;;;4943839;28;20847;-45
2022/03/04 03:30:40;;;;;;;85.37;48.70;;;;;;;;;;4943184;28;20422;-45
2022/03/04 03:33:06;;;;;;;85.17;47.77;;;;;;;;;;4942151;28;20758;-45
2022/03/04 03:35:32;;;;;;;87.73;49.53;;;;;;;;;;4945589;28;20733;-45
2022/03/04 03:37:59;;;;;;;81.67;48.20;;;;;;;;;;4946796;28;20432;-45
2022/03/04 03:40:25;;;;;;;85.47;46.57;;;;;;;;;;4944648;28;20440;-44
2022/03/04 03:42:51;;;;;;;84.93;47.20;;;;;;;;;;4942596;28;20444;-45
2022/03/04 03:45:17;;;;;;;82.23;46.33;;;;;;;;;;4943933;28;20959;-45
2022/03/04 03:47:43;;;;;;;76.30;45.47;;;;;;;;;;4945270;28;20422;-45
2022/03/04 03:50:10;;;;;;;82.47;46.30;;;;;;;;;;4944643;28;20459;-45
2022/03/04 03:52:37;;;;;;;81.20;44.97;;;;;;;;;;4944878;28;21155;-45
2022/03/04 03:55:03;;;;;;;85.10;46.37;;;;;;;;;;4944358;28;20812;-45
2022/03/04 03:57:29;;;;;;;77.70;43.93;;;;;;;;;;4941980;28;20839;-44
2022/03/04 03:59:55;;;;;;;80.90;44.13;;;;;;;;;;4941656;28;20458;-45
2022/03/04 04:02:21;;;;;;;79.57;44.37;;;;;;;;;;4945124;28;20544;-45
2022/03/04 04:04:47;;;;;;;77.27;43.40;;;;;;;;;;4947037;28;20462;-45
2022/03/04 04:07:14;;;;;;;74.07;42.17;;;;;;;;;;4943396;28;20629;-44
2022/03/04 04:09:40;;;;;;;78.37;45.00;;;;;;;;;;4937743;28;20772;-45
2022/03/04 04:12:06;;;;;;;79.03;43.90;;;;;;;;;;4945877;28;20990;-45
2022/03/04 04:14:33;;;;;;;81.27;45.13;;;;;;;;;;4946763;28;20786;-44
2022/03/04 04:16:59;;;;;;;78.53;45.10;;;;;;;;;;4942574;28;20794;-45
2022/03/04 04:19:25;;;;;;;80.03;44.67;;;;;;;;;;4941196;28;20921;-45
2022/03/04 04:21:52;;;;;;;81.27;44.87;;;;;;;;;;4939869;28;20448;-45
2022/03/04 04:24:18;;;;;;;78.50;45.37;;;;;;;;;;4944534;28;21037;-45
2022/03/04 04:26:45;;;;;;;79.23;46.00;;;;;;;;;;4946171;28;20457;-44
2022/03/04 04:29:12;;;;;;;80.87;44.83;;;;;;;;;;4944193;28;21020;-44
2022/03/04 04:31:38;;;;;;;84.57;45.73;;;;;;;;;;4941846;28;21008;-45
2022/03/04 04:34:04;;;;;;;81.00;46.70;;;;;;;;;;4937178;28;21149;-44
2022/03/04 04:36:30;;;;;;;85.90;46.60;;;;;;;;;;4939197;28;21433;-44
2022/03/04 04:38:57;;;;;;;87.67;47.10;;;;;;;;;;4944054;28;20428;-42
2022/03/04 04:41:23;;;;;;;85.17;46.23;;;;;;;;;;4941158;28;20420;-43
2022/03/04 04:43:49;;;;;;;85.03;48.20;;;;;;;;;;4941471;28;20548;-42
2022/03/04 04:46:15;;;;;;;82.23;47.00;;;;;;;;;;4941476;28;20895;-43
2022/03/04 04:48:42;;;;;;;82.77;47.50;;;;;;;;;;4942220;28;20540;-43
2022/03/04 04:51:08;;;;;;;83.00;46.23;;;;;;;;;;4944330;28;20892;-43
2022/03/04 04:53:34;;;;;;;84.10;47.63;;;;;;;;;;4944271;28;20744;-43
2022/03/04 04:56:00;;;;;;;86.50;49.33;;;;;;;;;;4942641;28;20752;-42
2022/03/04 04:58:27;;;;;;;86.57;46.97;;;;;;;;;;4943262;28;20444;-42
2022/03/04 05:00:53;;;;;;;84.10;47.93;;;;;;;;;;4941381;28;21334;-44
2022/03/04 05:03:26;;;;;;;86.30;48.93;;;;;;;;;;4945381;28;20433;-43
2022/03/04 05:05:56;;;;;;;82.60;48.63;;;;;;;;;;4941553;28;20854;-43
2022/03/04 05:08:24;;;;;;;86.97;49.33;;;;;;;;;;4936662;28;20865;-43
2022/03/04 05:10:50;;;;;;;80.53;47.43;;;;;;;;;;4943217;28;21039;-43
2022/03/04 05:13:16;;;;;;;87.17;49.40;;;;;;;;;;4940885;28;20604;-43
2022/03/04 05:15:43;;;;;;;83.90;49.17;;;;;;;;;;4944640;28;20459;-43
2022/03/04 05:18:09;;;;;;;83.97;45.93;;;;;;;;;;4942906;28;20426;-43
2022/03/04 05:20:36;;;;;;;85.93;47.80;;;;;;;;;;4941624;28;20487;-43
2022/03/04 05:23:02;;;;;;;88.90;48.53;;;;;;;;;;4943829;28;21164;-43
2022/03/04 05:25:28;;;;;;;81.80;47.37;;;;;;;;;;4949795;28;20791;-44
2022/03/04 05:27:54;;;;;;;78.37;44.30;;;;;;;;;;4950128;28;20515;-43
2022/03/04 05:30:20;;;;;;;76.70;44.40;;;;;;;;;;4950333;28;20432;-44
2022/03/04 05:32:46;;;;;;;80.57;45.47;;;;;;;;;;4949556;28;20857;-43
2022/03/04 05:35:13;;;;;;;77.07;44.10;;;;;;;;;;4947014;28;20433;-43
2022/03/04 05:37:39;;;;;;;72.50;43.47;;;;;;;;;;4948555;28;20548;-43
2022/03/04 05:40:05;;;;;;;77.63;44.70;;;;;;;;;;4950603;28;20910;-43
2022/03/04 05:42:31;;;;;;;75.67;44.30;;;;;;;;;;4951571;28;21148;-43
2022/03/04 05:44:57;;;;;;;77.50;43.87;;;;;;;;;;4950076;28;20460;-43
2022/03/04 05:47:23;;;;;;;75.10;44.50;;;;;;;;;;4945830;28;20425;-43
2022/03/04 05:49:50;;;;;;;75.60;43.50;;;;;;;;;;4947250;28;20456;-43
2022/03/04 05:52:16;;;;;;;80.10;44.70;;;;;;;;;;4947605;28;20746;-44
2022/03/04 05:54:43;;;;;;;78.97;44.83;;;;;;;;;;4946942;28;20962;-43
2022/03/04 05:57:09;;;;;;;82.40;45.30;;;;;;;;;;4948032;28;21523;-42
2022/03/04 05:59:35;;;;;;;77.07;44.23;;;;;;;;;;4949484;28;20790;-44
2022/03/04 06:02:01;;;;;;;73.97;45.57;;;;;;;;;;4951061;28;20497;-43
2022/03/04 06:04:27;;;;;;;81.27;47.13;;;;;;;;;;4950891;28;20437;-43
2022/03/04 06:06:53;;;;;;;74.13;44.13;;;;;;;;;;4946306;28;20458;-42
2022/03/04 06:09:21;;;;;;;77.13;45.00;;;;;;;;;;4948473;28;20417;-44
2022/03/04 06:11:47;;;;;;;79.63;46.37;;;;;;;;;;4953621;28;20857;-43
2022/03/04 06:14:13;;;;;;;88.07;51.67;;;;;;;;;;4950683;28;20437;-43
2022/03/04 06:16:39;;;;;;;81.37;47.93;;;;;;;;;;4942935;28;21122;-43
2022/03/04 06:19:05;;;;;;;90.13;50.67;;;;;;;;;;4945407;28;20771;-44
2022/03/04 06:21:32;;;;;;;85.30;48.07;;;;;;;;;;4945580;28;20547;-43
2022/03/04 06:23:58;;;;;;;80.60;46.63;;;;;;;;;;4945660;28;20785;-44
2022/03/04 06:26:24;;;;;;;84.37;47.70;;;;;;;;;;4940192;28;20453;-43
2022/03/04 06:28:50;;;;;;;87.87;49.50;;;;;;;;;;4946981;28;21143;-43
2022/03/04 06:31:16;;;;;;;92.93;52.10;;;;;;;;;;4943119;28;20871;-43
2022/03/04 06:33:42;;;;;;;93.50;51.37;;;;;;;;;;4945173;28;20432;-42
2022/03/04 06:36:13;;;;;;;90.03;52.33;;;;;;;;;;4941519;28;20834;-44
2022/03/04 06:38:41;;;;;;;94.63;52.40;;;;;;;;;;4945239;28;20437;-44
2022/03/04 06:41:08;;;;;;;102.80;56.30;;;;;;;;;;4942605;28;20433;-44
2022/03/04 06:43:35;;;;;;;98.93;54.87;;;;;;;;;;4944091;28;20440;-44
2022/03/04 06:46:04;;;;;;;94.10;53.00;;;;;;;;;;4948411;28;20465;-43
2022/03/04 06:48:31;;;;;;;93.30;53.90;;;;;;;;;;4949693;28;20535;-44
2022/03/04 06:50:57;;;;;;;90.93;51.73;;;;;;;;;;4947008;28;20484;-44
2022/03/04 06:53:24;;;;;;;93.27;51.87;;;;;;;;;;4943523;28;21008;-44
2022/03/04 06:55:50;;;;;;;97.47;55.80;;;;;;;;;;4944909;28;20477;-43
2022/03/04 06:58:16;;;;;;;93.53;53.83;;;;;;;;;;4944359;28;20417;-44
2022/03/04 07:00:42;;;;;;;95.27;55.20;;;;;;;;;;4948261;28;20440;-43
2022/03/04 07:03:09;;;;;;;95.70;55.57;;;;;;;;;;4944211;28;20752;-43
2022/03/04 07:05:36;;;;;;;92.40;54.10;;;;;;;;;;4944682;28;20457;-44
2022/03/04 07:08:03;;;;;;;89.03;52.27;;;;;;;;;;4944899;28;20543;-44
2022/03/04 07:10:29;;;;;;;88.90;51.93;;;;;;;;;;4945436;28;20512;-44
2022/03/04 07:12:55;;;;;;;91.17;52.63;;;;;;;;;;4946919;28;20418;-44
2022/03/04 07:15:21;;;;;;;89.87;52.83;;;;;;;;;;4945299;28;20509;-44
2022/03/04 07:17:48;;;;;;;89.37;51.63;;;;;;;;;;4944226;28;20421;-44
2022/03/04 07:20:14;;;;;;;88.13;50.50;;;;;;;;;;4945746;28;20818;-43
2022/03/04 07:22:42;;;;;;;95.90;54.80;;;;;;;;;;4950064;28;20426;-44
2022/03/04 07:25:09;;;;;;;96.80;54.20;;;;;;;;;;4950627;28;20585;-44
2022/03/04 07:27:36;;;;;;;93.80;54.57;;;;;;;;;;4945670;28;20444;-43
2022/03/04 07:30:07;;;;;;;83.10;49.70;;;;;;;;;;4945469;28;20441;-44
2022/03/04 07:32:33;;;;;;;91.63;52.63;;;;;;;;;;4946416;28;20421;-44
2022/03/04 07:34:59;;;;;;;87.60;52.17;;;;;;;;;;4949058;28;21166;-44
2022/03/04 07:37:26;;;;;;;88.10;52.60;;;;;;;;;;4945241;28;20762;-44
2022/03/04 07:39:53;;;;;;;85.33;48.60;;;;;;;;;;4948320;28;21261;-44
2022/03/04 07:42:19;;;;;;;96.00;52.37;;;;;;;;;;4947604;28;20970;-44
2022/03/04 07:44:45;;;;;;;85.60;49.30;;;;;;;;;;4947229;28;20922;-44
2022/03/04 07:47:11;;;;;;;86.07;48.60;;;;;;;;;;4945510;28;20418;-44
2022/03/04 07:49:37;;;;;;;85.87;49.50;;;;;;;;;;4948129;28;20705;-44
2022/03/04 07:52:03;;;;;;;80.53;48.93;;;;;;;;;;4949675;28;20732;-44
2022/03/04 07:54:29;;;;;;;79.93;48.80;;;;;;;;;;4947442;28;20505;-45
2022/03/04 07:56:55;;;;;;;88.20;50.20;;;;;;;;;;4945410;28;20464;-43
2022/03/04 07:59:22;;;;;;;79.77;48.87;;;;;;;;;;4949282;28;20429;-44
2022/03/04 08:01:48;;;;;;;78.67;46.63;;;;;;;;;;4947363;28;20506;-43
2022/03/04 08:04:14;;;;;;;77.40;47.37;;;;;;;;;;4943930;28;20414;-43
2022/03/04 08:06:41;;;;;;;83.60;49.13;;;;;;;;;;4941326;28;20776;-44
2022/03/04 08:09:07;;;;;;;79.70;49.23;;;;;;;;;;4945632;28;20429;-44
2022/03/04 08:11:33;;;;;;;83.20;49.27;;;;;;;;;;4950201;28;20487;-45
2022/03/04 08:13:59;;;;;;;80.93;47.80;;;;;;;;;;4946890;28;20410;-44
2022/03/04 08:16:25;;;;;;;78.27;47.33;;;;;;;;;;4944807;28;20432;-45
2022/03/04 08:18:52;;;;;;;74.20;46.20;;;;;;;;;;4947549;28;21294;-45
2022/03/04 08:21:18;;;;;;;78.07;48.17;;;;;;;;;;4948666;28;20424;-44
2022/03/04 08:23:44;;;;;;;78.07;47.40;;;;;;;;;;4943366;28;20415;-45
2022/03/04 08:26:10;;;;;;;74.73;46.53;;;;;;;;;;4944929;28;20768;-45
2022/03/04 08:28:36;;;;;;;74.37;45.83;;;;;;;;;;4944500;28;20539;-45
2022/03/04 08:31:10;;;;;;;68.33;43.77;;;;;;;;;;4945973;28;20440;-44
2022/03/04 08:33:36;;;;;;;69.90;44.80;;;;;;;;;;4945431;28;20730;-45
2022/03/04 08:36:03;;;;;;;77.87;48.53;;;;;;;;;;4946123;28;20577;-45
2022/03/04 08:38:29;;;;;;;67.40;43.50;;;;;;;;;;4947444;28;20213;-45
2022/03/04 08:40:55;;;;;;;75.77;45.90;;;;;;;;;;4944856;28;20588;-45
2022/03/04 08:43:22;;;;;;;70.87;44.27;;;;;;;;;;4946056;28;20276;-45
2022/03/04 08:45:48;;;;;;;74.27;44.07;;;;;;;;;;4948513;28;20624;-45
2022/03/04 08:48:14;;;;;;;79.50;45.50;;;;;;;;;;4948308;28;21064;-45
2022/03/04 08:50:40;;;;;;;78.37;43.70;;;;;;;;;;4943770;28;20181;-45
2022/03/04 08:53:06;;;;;;;73.03;45.03;;;;;;;;;;4947980;28;20209;-45
2022/03/04 08:55:32;;;;;;;68.93;41.83;;;;;;;;;;4946385;28;21115;-45
2022/03/04 08:58:00;;;;;;;74.20;43.67;;;;;;;;;;4944729;28;20249;-45
2022/03/04 09:00:28;;;;;;;79.47;46.23;;;;;;;;;;4944104;28;20978;-45
2022/03/04 09:02:54;;;;;;;65.87;42.80;;;;;;;;;;4944519;28;20178;-45
2022/03/04 09:05:20;;;;;;;63.10;40.10;;;;;;;;;;4975296;28;20524;-45
2022/03/04 09:07:46;;;;;;;62.20;39.70;;;;;;;;;;4945294;28;20174;-45
2022/03/04 09:10:12;;;;;;;61.57;38.77;;;;;;;;;;4946634;28;20176;-45
2022/03/04 09:12:39;;;;;;;56.63;36.07;;;;;;;;;;4944438;28;20175;-45
2022/03/04 09:15:07;;;;;;;52.93;34.40;;;;;;;;;;4943060;28;20254;-45
2022/03/04 09:17:33;;;;;;;56.37;34.87;;;;;;;;;;4946467;28;20671;-45
2022/03/04 09:19:59;;;;;;;55.33;36.90;;;;;;;;;;4944123;28;20262;-45
2022/03/04 09:22:26;;;;;;;57.67;36.40;;;;;;;;;;4946377;28;20806;-45
2022/03/04 09:24:52;;;;;;;64.40;41.30;;;;;;;;;;4944786;28;20239;-45
2022/03/04 09:27:18;;;;;;;58.77;38.33;;;;;;;;;;4944646;28;20182;-45
2022/03/04 09:29:45;;;;;;;59.73;37.10;;;;;;;;;;4946291;28;20193;-45
2022/03/04 09:32:11;;;;;;;58.70;37.63;;;;;;;;;;4947713;28;21127;-45
2022/03/04 09:34:37;;;;;;;58.33;39.17;;;;;;;;;;4946151;28;20627;-45
2022/03/04 09:37:04;;;;;;;69.47;42.87;;;;;;;;;;4945444;28;20182;-45
2022/03/04 09:39:30;;;;;;;64.93;43.07;;;;;;;;;;4946157;28;20304;-45
2022/03/04 09:41:56;;;;;;;65.53;43.57;;;;;;;;;;4944372;28;20185;-45
2022/03/04 09:44:22;;;;;;;61.70;40.83;;;;;;;;;;4962036;28;20929;-45
2022/03/04 09:46:49;;;;;;;63.77;41.47;;;;;;;;;;4943926;28;20902;-45
2022/03/04 09:49:16;;;;;;;64.70;42.70;;;;;;;;;;4942073;28;20277;-45
2022/03/04 09:51:42;;;;;;;62.23;41.17;;;;;;;;;;4947348;28;20212;-45
2022/03/04 09:54:08;;;;;;;62.07;41.87;;;;;;;;;;4946307;28;20174;-46
2022/03/04 09:56:34;;;;;;;59.33;38.80;;;;;;;;;;4945257;28;20406;-45
2022/03/04 09:59:00;;;;;;;56.67;36.87;;;;;;;;;;4943659;28;20190;-45
2022/03/04 10:01:26;;;;;;;60.87;40.50;;;;;;;;;;4947348;28;20305;-46
2022/03/04 10:03:53;;;;;;;62.60;40.67;;;;;;;;;;4947478;28;20454;-45
2022/03/04 10:06:20;;;;;;;58.27;38.13;;;;;;;;;;4945076;28;20610;-46
2022/03/04 10:08:47;;;;;;;57.20;37.00;;;;;;;;;;4945826;28;20713;-45
2022/03/04 10:11:23;;;;;;;54.87;36.97;;;;;;;;;;4946288;28;20458;-45
2022/03/04 10:13:50;;;;;;;60.33;38.10;;;;;;;;;;4948771;28;20169;-45
2022/03/04 10:16:22;;;;;;;58.67;39.93;;;;;;;;;;4949641;28;20213;-45
2022/03/04 10:19:07;;;;;;;62.80;40.63;;;;;;;;;;4947156;28;20178;-45
2022/03/04 10:21:53;;;;;;;61.13;40.67;;;;;;;;;;4949587;28;20186;-45
2022/03/04 10:24:30;;;;;;;59.03;40.40;;;;;;;;;;4954621;28;20218;-45
2022/03/04 10:27:03;;;;;;;60.47;40.13;;;;;;;;;;4947549;28;20797;-45
2022/03/04 10:29:30;;;;;;;55.60;36.97;;;;;;;;;;4946849;28;20911;-45
2022/03/04 10:32:11;;;;;;;57.80;39.33;;;;;;;;;;4944208;28;20199;-45
2022/03/04 10:34:47;;;;;;;57.70;38.97;;;;;;;;;;4948440;28;20261;-45
2022/03/04 10:37:14;;;;;;;56.70;36.83;;;;;;;;;;4946094;28;20244;-45
2022/03/04 10:39:59;;;;;;;57.33;39.40;;;;;;;;;;4947728;28;20217;-45
2022/03/04 10:42:57;;;;;;;61.87;39.57;;;;;;;;;;4943031;28;20761;-45
2022/03/04 10:45:28;;;;;;;55.73;36.50;;;;;;;;;;4912941;28;20527;-45
2022/03/04 10:47:57;;;;;;;50.93;33.63;;;;;;;;;;4948202;28;20253;-45
2022/03/04 10:50:34;;;;;;;55.60;35.47;;;;;;;;;;4946209;28;20194;-45
2022/03/04 10:53:00;;;;;;;54.00;36.53;;;;;;;;;;4944694;28;20320;-45
2022/03/04 10:55:33;;;;;;;49.30;33.47;;;;;;;;;;4945929;28;20178;-45
2022/03/04 10:58:00;;;;;;;54.33;36.47;;;;;;;;;;4944480;28;20568;-45
2022/03/04 11:00:27;;;;;;;49.40;34.33;;;;;;;;;;4949006;28;20578;-45
2022/03/04 11:02:54;;;;;;;54.83;37.30;;;;;;;;;;4950557;28;20399;-45
2022/03/04 11:05:21;;;;;;;52.23;36.53;;;;;;;;;;4945726;28;20264;-45
2022/03/04 11:07:47;;;;;;;52.10;36.00;;;;;;;;;;4957889;28;20178;-45
2022/03/04 11:10:13;;;;;;;52.60;35.03;;;;;;;;;;4947351;28;20280;-45
2022/03/04 11:12:44;;;;;;;52.43;35.63;;;;;;;;;;4949107;28;20190;-44
2022/03/04 11:15:11;;;;;;;53.93;34.43;;;;;;;;;;4942947;28;20442;-45
2022/03/04 11:17:38;;;;;;;49.53;33.10;;;;;;;;;;4946221;28;20583;-45
2022/03/04 11:20:05;;;;;;;48.13;34.67;;;;;;;;;;4948213;28;20182;-45
2022/03/04 11:22:31;;;;;;;52.60;35.70;;;;;;;;;;4946969;28;20228;-45
2022/03/04 11:25:08;;;;;;;53.30;35.73;;;;;;;;;;4944413;28;20924;-45
2022/03/04 11:27:37;;;;;;;54.40;35.50;;;;;;;;;;4943511;28;20205;-45
2022/03/04 11:30:04;;;;;;;54.50;36.40;;;;;;;;;;4943089;28;20178;-45
2022/03/04 11:32:31;;;;;;;55.83;37.90;;;;;;;;;;4943594;28;20276;-45
2022/03/04 11:34:57;;;;;;;50.83;35.20;;;;;;;;;;4946722;28;20205;-45
2022/03/04 11:37:23;;;;;;;51.43;35.37;;;;;;;;;;4942291;28;20607;-45
2022/03/04 11:40:32;;;;;;;48.33;32.20;;;;;;;;;;4943522;28;20170;-45
2022/03/04 11:42:52;;;;;;;45.73;31.43;;;;;;;;;;4947068;28;20626;-45
2022/03/04 11:45:28;;;;;;;46.43;32.67;;;;;;;;;;4944585;28;20770;-45
2022/03/04 11:48:01;;;;;;;56.20;34.17;;;;;;;;;;4943485;28;20896;-45
2022/03/04 11:50:29;;;;;;;46.37;31.30;;;;;;;;;;4943415;28;20836;-45
2022/03/04 11:53:11;;;;;;;42.80;30.53;;;;;;;;;;4939853;28;20671;-45
2022/03/04 11:55:37;;;;;;;46.00;30.43;;;;;;;;;;4946999;28;20684;-45
2022/03/04 11:58:04;;;;;;;44.33;30.83;;;;;;;;;;4943049;28;20178;-45
2022/03/04 12:00:30;;;;;;;48.57;32.67;;;;;;;;;;4943483;28;20249;-45
2022/03/04 12:02:58;;;;;;;42.33;30.10;;;;;;;;;;4942393;28;20535;-45
2022/03/04 12:05:25;;;;;;;43.77;29.43;;;;;;;;;;4944137;28;20313;-45
2022/03/04 12:07:54;;;;;;;37.97;27.50;;;;;;;;;;4943862;28;20738;-45
2022/03/04 12:10:21;;;;;;;43.43;29.60;;;;;;;;;;4943880;28;20253;-45
2022/03/04 12:13:02;;;;;;;47.30;29.80;;;;;;;;;;4947207;28;20242;-45
2022/03/04 12:15:39;;;;;;;40.97;27.97;;;;;;;;;;4946750;28;20426;-45
2022/03/04 12:18:25;;;;;;;41.27;29.13;;;;;;;;;;4941712;28;20615;-45
2022/03/04 12:20:57;;;;;;;38.33;27.60;;;;;;;;;;4942909;28;20194;-45
2022/03/04 12:23:36;;;;;;;40.00;27.43;;;;;;;;;;4946425;28;20184;-45
2022/03/04 12:26:04;;;;;;;43.93;27.80;;;;;;;;;;4944993;28;20776;-45
2022/03/04 12:28:40;;;;;;;39.33;27.03;;;;;;;;;;4946068;28;20213;-46
2022/03/04 12:31:06;;;;;;;38.93;27.27;;;;;;;;;;4940027;28;20489;-45
2022/03/04 12:33:34;;;;;;;40.67;28.43;;;;;;;;;;4941718;28;20288;-45
2022/03/04 12:36:01;;;;;;;39.97;26.80;;;;;;;;;;4947399;28;20730;-45
2022/03/04 12:38:28;;;;;;;38.77;26.07;;;;;;;;;;4945475;28;20630;-45
2022/03/04 12:40:58;;;;;;;37.10;25.93;;;;;;;;;;4945130;28;21093;-45
2022/03/04 12:43:24;;;;;;;38.50;26.10;;;;;;;;;;4945289;28;20194;-45
2022/03/04 12:45:51;;;;;;;34.87;25.20;;;;;;;;;;4951706;28;20202;-45
2022/03/04 12:48:18;;;;;;;38.17;26.50;;;;;;;;;;4944848;28;20171;-45
2022/03/04 12:50:44;;;;;;;37.03;26.50;;;;;;;;;;4944729;28;20171;-45
2022/03/04 12:53:24;;;;;;;38.47;25.90;;;;;;;;;;4946722;28;20878;-45
2022/03/04 12:55:55;;;;;;;40.43;27.47;;;;;;;;;;4946140;28;20634;-45
2022/03/04 12:58:34;;;;;;;37.10;26.93;;;;;;;;;;4945310;28;20607;-45
2022/03/04 13:01:02;;;;;;;38.47;27.20;;;;;;;;;;4946557;28;20486;-45
2022/03/04 13:03:28;;;;;;;36.47;26.40;;;;;;;;;;4944612;28;20244;-45
2022/03/04 13:05:54;;;;;;;35.43;25.33;;;;;;;;;;4949761;28;20734;-45
2022/03/04 13:08:20;;;;;;;33.40;24.00;;;;;;;;;;4946299;28;20255;-45
2022/03/04 13:10:47;;;;;;;36.03;25.63;;;;;;;;;;4943936;28;20353;-45
2022/03/04 13:13:13;;;;;;;38.03;25.93;;;;;;;;;;4943135;28;20683;-45
2022/03/04 13:15:53;;;;;;;36.60;25.37;;;;;;;;;;4944094;28;20351;-45
2022/03/04 13:18:22;;;;;;;38.70;27.87;;;;;;;;;;4945353;28;20541;-45
2022/03/04 13:21:02;;;;;;;36.77;25.73;;;;;;;;;;4945189;28;20622;-45
2022/03/04 13:23:29;;;;;;;38.77;27.43;;;;;;;;;;4940282;28;20208;-45
2022/03/04 13:26:01;;;;;;;34.80;24.73;;;;;;;;;;4944544;28;20195;-45
2022/03/04 13:28:27;;;;;;;35.70;25.23;;;;;;;;;;4943650;28;20159;-45
2022/03/04 13:30:53;;;;;;;37.93;27.10;;;;;;;;;;4942237;28;20182;-46
2022/03/04 13:33:19;;;;;;;39.87;26.63;;;;;;;;;;4944400;28;20174;-45
2022/03/04 13:35:50;;;;;;;38.17;27.27;;;;;;;;;;4947262;28;20602;-45
2022/03/04 13:38:21;;;;;;;40.33;28.10;;;;;;;;;;4940400;28;20410;-45
2022/03/04 13:40:47;;;;;;;38.83;26.50;;;;;;;;;;4943148;28;20627;-45
2022/03/04 13:43:26;;;;;;;36.47;26.87;;;;;;;;;;4940796;28;20623;-45
2022/03/04 13:45:54;;;;;;;37.47;27.00;;;;;;;;;;4948900;28;20394;-45
2022/03/04 13:48:21;;;;;;;38.77;27.43;;;;;;;;;;4944855;28;20651;-46
2022/03/04 13:50:47;;;;;;;42.60;27.67;;;;;;;;;;4946687;28;20205;-45
2022/03/04 13:53:21;;;;;;;38.30;28.43;;;;;;;;;;4944293;28;20171;-45
2022/03/04 13:55:50;;;;;;;34.60;25.93;;;;;;;;;;4943365;28;20734;-44
2022/03/04 13:58:23;;;;;;;41.17;27.63;;;;;;;;;;4950534;28;20318;-45
2022/03/04 14:00:53;;;;;;;37.60;27.50;;;;;;;;;;4949079;28;20190;-46
2022/03/04 14:03:23;;;;;;;38.87;27.53;;;;;;;;;;4946424;28;20316;-45
2022/03/04 14:05:57;;;;;;;40.83;29.10;;;;;;;;;;4946269;28;20241;-45
2022/03/04 14:08:24;;;;;;;37.70;27.33;;;;;;;;;;4944822;28;20178;-45
2022/03/04 14:10:50;;;;;;;41.73;28.23;;;;;;;;;;4945872;28;20550;-45
2022/03/04 14:13:18;;;;;;;41.67;28.83;;;;;;;;;;4947658;28;20921;-45
2022/03/04 14:15:45;;;;;;;39.87;29.37;;;;;;;;;;4947545;28;20183;-45
2022/03/04 14:18:12;;;;;;;40.57;28.00;;;;;;;;;;4945227;28;20396;-45